createdAt,value
2023-07-15T00:00:12.945Z,97760.87
2023-07-15T00:03:54.692Z,97761.05
2023-07-15T00:07:02.790Z,97765.84
2023-07-15T00:10:29.962Z,97763.06
2023-07-15T00:13:36.137Z,97765.80
2023-07-15T00:16:45.100Z,97764.85
2023-07-15T00:20:12.928Z,97762.45
2023-07-15T00:23:41.392Z,97761.45
2023-07-15T00:27:08.496Z,97760.48
2023-07-15T00:30:18.175Z,97759.64
2023-07-15T00:33:45.288Z,97760.08
2023-07-15T00:37:12.365Z,97753.81
2023-07-15T00:40:41.068Z,97751.53
2023-07-15T00:44:07.498Z,97753.41
2023-07-15T00:47:48.393Z,97751.32
2023-07-15T00:51:15.480Z,97748.64
2023-07-15T00:54:45.541Z,97748.52
2023-07-15T00:58:16.243Z,97748.59
2023-07-15T01:04:24.158Z,97739.10
2023-07-15T01:07:36.567Z,97736.13
2023-07-15T01:11:07.729Z,97729.35
2023-07-15T01:14:34.746Z,97730.61
2023-07-15T01:17:44.945Z,97728.60
2023-07-15T01:21:11.866Z,97729.02
2023-07-15T01:24:39.806Z,97733.55
2023-07-15T01:28:09.493Z,97731.00
2023-07-15T01:31:18.002Z,97722.64
2023-07-15T01:34:45.154Z,97725.17
2023-07-15T01:37:37.916Z,97720.79
2023-07-15T01:41:05.916Z,97717.17
2023-07-15T01:44:33.735Z,97714.52
2023-07-15T01:48:05.692Z,97712.02
2023-07-15T01:51:33.422Z,97713.59
2023-07-15T01:54:38.605Z,97713.21
2023-07-15T01:58:09.286Z,97710.98
2023-07-15T02:01:45.424Z,97711.31
2023-07-15T02:04:55.431Z,97711.13
2023-07-15T02:07:48.810Z,97714.40
2023-07-15T02:11:00.534Z,97712.72
2023-07-15T02:13:49.096Z,97711.18
2023-07-15T02:17:16.490Z,97712.48
2023-07-15T02:20:50.132Z,97712.35
2023-07-15T02:24:02.448Z,97711.75
2023-07-15T02:26:47.219Z,97714.44
2023-07-15T02:30:14.440Z,97715.87
2023-07-15T02:33:45.779Z,97719.77
2023-07-15T02:36:54.777Z,97717.52
2023-07-15T02:40:30.024Z,97716.05
2023-07-15T02:43:59.426Z,97718.56
2023-07-15T02:47:26.317Z,97716.56
2023-07-15T02:50:22.566Z,97723.16
2023-07-15T02:53:52.441Z,97722.40
2023-07-15T02:57:04.313Z,97723.14
2023-07-15T03:00:04.825Z,97725.63
2023-07-15T03:03:14.870Z,97726.95
2023-07-15T03:06:21.541Z,97731.75
2023-07-15T03:09:24.371Z,97734.15
2023-07-15T03:11:52.339Z,97731.64
2023-07-15T03:15:00.573Z,97729.77
2023-07-15T03:17:51.473Z,97735.79
2023-07-15T03:20:32.560Z,97736.20
2023-07-15T03:23:35.096Z,97738.73
2023-07-15T03:26:43.281Z,97736.17
2023-07-15T03:29:47.289Z,97735.29
2023-07-15T03:32:31.449Z,97731.64
2023-07-15T03:35:31.437Z,97733.07
2023-07-15T03:38:22.196Z,97734.31
2023-07-15T03:41:30.030Z,97736.52
2023-07-15T03:44:18.124Z,97736.17
2023-07-15T03:47:47.322Z,97742.26
2023-07-15T03:50:41.249Z,97742.98
2023-07-15T03:53:28.947Z,97743.83
2023-07-15T03:56:38.584Z,97741.80
2023-07-15T03:59:45.526Z,97737.01
2023-07-15T04:02:35.384Z,97732.95
2023-07-15T04:05:46.288Z,97735.61
2023-07-15T04:08:21.667Z,97734.67
2023-07-15T04:11:18.171Z,97739.48
2023-07-15T04:14:07.252Z,97737.86
2023-07-15T04:17:16.605Z,97732.98
2023-07-15T04:20:21.765Z,97734.98
2023-07-15T04:22:51.452Z,97741.54
2023-07-15T04:25:40.700Z,97742.45
2023-07-15T04:28:21.424Z,97742.52
2023-07-15T04:31:17.720Z,97743.89
2023-07-15T04:34:44.540Z,97742.66
2023-07-15T04:37:48.676Z,97745.50
2023-07-15T04:41:15.591Z,97744.77
2023-07-15T04:44:17.261Z,97746.52
2023-07-15T04:47:44.212Z,97748.88
2023-07-15T04:51:11.486Z,97746.11
2023-07-15T04:54:19.784Z,97742.45
2023-07-15T04:57:16.511Z,97745.95
2023-07-15T05:00:28.679Z,97745.27
2023-07-15T05:03:03.412Z,97748.46
2023-07-15T05:05:55.635Z,97752.24
2023-07-15T05:09:22.835Z,97752.88
2023-07-15T05:11:51.057Z,97759.33
2023-07-15T05:15:04.068Z,97759.16
2023-07-15T05:18:23.101Z,97765.11
2023-07-15T05:21:32.851Z,97765.10
2023-07-15T05:24:05.990Z,97765.73
2023-07-15T05:27:28.995Z,97765.11
2023-07-15T05:30:18.863Z,97767.70
2023-07-15T05:33:26.401Z,97759.48
2023-07-15T05:36:53.339Z,97756.02
2023-07-15T05:40:20.693Z,97753.70
2023-07-15T05:43:47.706Z,97753.92
2023-07-15T05:46:57.333Z,97749.98
2023-07-15T05:50:31.024Z,97749.09
2023-07-15T05:53:58.888Z,97749.17
2023-07-15T05:57:26.805Z,97741.41
2023-07-15T06:00:54.218Z,97739.86
2023-07-15T06:04:21.058Z,97738.91
2023-07-15T06:07:29.683Z,97741.72
2023-07-15T06:10:56.679Z,97741.88
2023-07-15T06:14:10.689Z,97742.11
2023-07-15T06:17:37.562Z,97744.26
2023-07-15T06:21:20.567Z,97748.01
2023-07-15T06:24:27.755Z,97754.70
2023-07-15T06:27:36.082Z,97759.33
2023-07-15T06:30:53.165Z,97759.25
2023-07-15T06:34:05.331Z,97759.08
2023-07-15T06:37:13.624Z,97759.66
2023-07-15T06:40:26.018Z,97758.13
2023-07-15T06:43:52.986Z,97757.51
2023-07-15T06:46:45.931Z,97758.58
2023-07-15T06:49:36.471Z,97757.36
2023-07-15T06:52:48.146Z,97758.33
2023-07-15T06:55:42.420Z,97758.92
2023-07-15T06:59:09.746Z,97757.55
2023-07-15T07:02:38.786Z,97754.45
2023-07-15T07:05:26.465Z,97754.72
2023-07-15T07:08:53.433Z,97754.09
2023-07-15T07:12:26.302Z,97755.52
2023-07-15T07:15:33.881Z,97752.73
2023-07-15T07:19:01.022Z,97747.80
2023-07-15T07:22:27.972Z,97750.44
2023-07-15T07:25:55.660Z,97752.91
2023-07-15T07:29:32.834Z,97750.58
2023-07-15T07:33:00.683Z,97745.06
2023-07-15T07:36:28.297Z,97742.93
2023-07-15T07:39:27.461Z,97746.80
2023-07-15T07:42:43.915Z,97741.59
2023-07-15T07:46:12.695Z,97739.14
2023-07-15T07:49:39.611Z,97743.81
2023-07-15T07:52:57.868Z,97743.14
2023-07-15T07:56:24.814Z,97752.89
2023-07-15T07:59:35.005Z,97749.02
2023-07-15T08:03:01.944Z,97751.24
2023-07-15T08:06:30.002Z,97746.69
2023-07-15T08:09:59.799Z,97748.35
2023-07-15T08:13:29.954Z,97749.27
2023-07-15T08:17:33.368Z,97744.38
2023-07-15T08:21:54.648Z,97744.80
2023-07-15T08:25:41.749Z,97740.95
2023-07-15T08:29:29.419Z,97742.34
2023-07-15T08:33:17.339Z,97740.60
2023-07-15T08:37:04.814Z,97736.25
2023-07-15T08:40:51.660Z,97735.40
2023-07-15T08:44:40.034Z,97729.61
2023-07-15T08:48:26.995Z,97727.21
2023-07-15T08:52:15.815Z,97730.42
2023-07-15T08:56:05.750Z,97730.39
2023-07-15T08:59:54.461Z,97734.46
2023-07-15T09:03:21.800Z,97733.59
2023-07-15T09:07:10.986Z,97733.80
2023-07-15T09:14:52.790Z,97725.00
2023-07-15T09:18:37.368Z,97730.92
2023-07-15T09:22:35.486Z,97734.79
2023-07-15T09:26:35.724Z,97734.09
2023-07-15T09:30:29.474Z,97733.16
2023-07-15T09:34:46.616Z,97728.13
2023-07-15T09:38:36.871Z,97728.63
2023-07-15T09:42:22.915Z,97723.31
2023-07-15T09:46:14.466Z,97717.13
2023-07-15T09:50:05.654Z,97708.50
2023-07-15T09:53:55.750Z,97707.41
2023-07-15T09:57:46.442Z,97705.59
2023-07-15T10:01:37.118Z,97699.52
2023-07-15T10:05:28.532Z,97697.15
2023-07-15T10:09:16.961Z,97698.80
2023-07-15T10:13:05.475Z,97694.45
2023-07-15T10:16:56.408Z,97694.78
2023-07-15T10:20:44.285Z,97706.76
2023-07-15T10:24:34.980Z,97699.72
2023-07-15T10:28:26.367Z,97699.59
2023-07-15T10:32:20.439Z,97698.70
2023-07-15T10:36:25.376Z,97702.39
2023-07-15T10:40:18.930Z,97693.03
2023-07-15T10:44:15.545Z,97693.01
2023-07-15T10:48:04.573Z,97691.16
2023-07-15T10:51:55.826Z,97684.10
2023-07-15T10:55:44.294Z,97687.55
2023-07-15T10:59:32.920Z,97683.55
2023-07-15T11:03:27.907Z,97683.83
2023-07-15T11:07:13.363Z,97679.17
2023-07-15T11:11:13.962Z,97679.63
2023-07-15T11:15:05.410Z,97683.86
2023-07-15T11:19:01.894Z,97677.76
2023-07-15T11:22:49.785Z,97671.11
2023-07-15T11:26:49.957Z,97668.36
2023-07-15T11:30:40.800Z,97675.17
2023-07-15T11:34:30.402Z,97667.03
2023-07-15T11:38:13.942Z,97660.45
2023-07-15T11:42:12.120Z,97658.25
2023-07-15T11:46:00.538Z,97651.05
2023-07-15T11:49:51.604Z,97646.84
2023-07-15T11:53:44.986Z,97647.69
2023-07-15T11:57:39.984Z,97644.35
2023-07-15T12:01:27.859Z,97650.48
2023-07-15T12:05:17.990Z,97649.69
2023-07-15T12:09:05.938Z,97647.90
2023-07-15T12:12:55.730Z,97642.95
2023-07-15T12:16:43.505Z,97641.17
2023-07-15T12:20:35.440Z,97637.42
2023-07-15T12:24:26.298Z,97635.38
2023-07-15T12:28:14.021Z,97630.90
2023-07-15T12:32:02.354Z,97624.08
2023-07-15T12:35:56.346Z,97618.62
2023-07-15T12:39:44.292Z,97619.27
2023-07-15T12:43:11.736Z,97613.14
2023-07-15T12:47:06.160Z,97609.62
2023-07-15T12:50:55.269Z,97602.14
2023-07-15T12:54:43.532Z,97607.58
2023-07-15T13:02:26.348Z,97589.96
2023-07-15T13:06:14.185Z,97589.31
2023-07-15T13:10:06.503Z,97588.29
2023-07-15T13:13:54.480Z,97596.19
2023-07-15T13:17:44.345Z,97595.92
2023-07-15T13:21:35.387Z,97597.34
2023-07-15T13:25:23.489Z,97596.90
2023-07-15T13:29:27.545Z,97593.80
2023-07-15T13:33:15.977Z,97590.08
2023-07-15T13:37:03.907Z,97590.78
2023-07-15T13:44:37.892Z,97585.14
2023-07-15T13:48:26.126Z,97579.78
2023-07-15T13:52:26.208Z,97584.77
2023-07-15T13:56:14.785Z,97585.95
2023-07-15T14:00:06.862Z,97581.53
2023-07-15T14:06:50.280Z,97576.92
2023-07-15T14:10:39.355Z,97575.05
2023-07-15T14:14:28.638Z,97573.65
2023-07-15T14:18:17.119Z,97573.95
2023-07-15T14:22:15.977Z,97573.15
2023-07-15T14:26:08.096Z,97570.44
2023-07-15T14:29:59.016Z,97565.92
2023-07-15T14:33:46.759Z,97561.66
2023-07-15T14:37:42.662Z,97563.01
2023-07-15T14:41:30.995Z,97555.67
2023-07-15T14:45:18.793Z,97551.23
2023-07-15T14:48:52.826Z,97554.71
2023-07-15T14:52:41.808Z,97548.42
2023-07-15T14:56:31.220Z,97545.98
2023-07-15T15:00:18.902Z,97540.96
2023-07-15T15:04:07.016Z,97540.64
2023-07-15T15:07:56.567Z,97532.30
2023-07-15T15:11:46.843Z,97530.09
2023-07-15T15:15:35.988Z,97522.65
2023-07-15T15:19:24.249Z,97526.73
2023-07-15T15:23:12.085Z,97527.73
2023-07-15T15:26:43.668Z,97531.37
2023-07-15T15:30:37.646Z,97529.77
2023-07-15T15:34:27.951Z,97526.02
2023-07-15T15:38:19.455Z,97530.85
2023-07-15T15:42:08.021Z,97528.55
2023-07-15T15:45:56.106Z,97525.14
2023-07-15T15:49:05.834Z,97520.64
2023-07-15T15:53:01.769Z,97517.41
2023-07-15T15:56:57.960Z,97515.71
2023-07-15T16:00:46.857Z,97517.59
2023-07-15T16:04:39.997Z,97512.17
2023-07-15T16:08:27.908Z,97512.07
2023-07-15T16:12:18.069Z,97512.51
2023-07-15T16:16:06.894Z,97511.51
2023-07-15T16:19:54.713Z,97506.70
2023-07-15T16:23:24.843Z,97504.83
2023-07-15T16:27:13.273Z,97508.45
2023-07-15T16:31:04.158Z,97513.31
2023-07-15T16:34:53.457Z,97517.66
2023-07-15T16:38:41.183Z,97516.60
2023-07-15T16:42:32.302Z,97512.10
2023-07-15T16:46:21.940Z,97510.27
2023-07-15T16:50:10.420Z,97508.71
2023-07-15T16:53:58.185Z,97509.95
2023-07-15T16:57:46.609Z,97507.90
2023-07-15T17:01:38.270Z,97507.77
2023-07-15T17:05:26.453Z,97505.67
2023-07-15T17:13:09.632Z,97509.85
2023-07-15T17:16:57.362Z,97516.52
2023-07-15T17:20:53.385Z,97512.11
2023-07-15T17:24:43.877Z,97507.38
2023-07-15T17:28:32.973Z,97506.84
2023-07-15T17:32:21.809Z,97505.54
2023-07-15T17:36:19.115Z,97507.41
2023-07-15T17:40:07.894Z,97501.34
2023-07-15T17:43:56.712Z,97496.89
2023-07-15T17:47:50.394Z,97498.61
2023-07-15T17:51:38.119Z,97503.60
2023-07-15T17:55:28.947Z,97497.45
2023-07-15T17:59:20.028Z,97501.61
2023-07-15T18:03:07.896Z,97498.96
2023-07-15T18:07:03.911Z,97498.77
2023-07-15T18:10:52.576Z,97493.98
2023-07-15T18:14:41.774Z,97498.79
2023-07-15T18:18:32.537Z,97502.11
2023-07-15T18:22:24.139Z,97503.17
2023-07-15T18:30:03.452Z,97510.64
2023-07-15T18:33:53.534Z,97516.14
2023-07-15T18:37:42.876Z,97517.64
2023-07-15T18:41:30.749Z,97519.67
2023-07-15T18:45:18.581Z,97517.20
2023-07-15T18:49:08.994Z,97515.98
2023-07-15T18:53:00.919Z,97515.98
2023-07-15T18:56:48.768Z,97520.46
2023-07-15T19:04:28.604Z,97518.64
2023-07-15T19:08:16.706Z,97529.80
2023-07-15T19:12:04.105Z,97534.33
2023-07-15T19:15:51.707Z,97537.71
2023-07-15T19:19:42.164Z,97542.67
2023-07-15T19:23:30.003Z,97545.91
2023-07-15T19:27:18.642Z,97543.45
2023-07-15T19:30:46.560Z,97551.80
2023-07-15T19:34:36.730Z,97550.84
2023-07-15T19:38:23.519Z,97552.72
2023-07-15T19:42:11.625Z,97549.11
2023-07-15T19:45:58.802Z,97546.20
2023-07-15T19:49:49.113Z,97544.40
2023-07-15T19:53:35.959Z,97547.41
2023-07-15T19:57:31.336Z,97555.20
2023-07-15T20:01:21.687Z,97552.23
2023-07-15T20:05:18.498Z,97551.75
2023-07-15T20:09:05.407Z,97555.30
2023-07-15T20:12:53.587Z,97556.38
2023-07-15T20:16:46.329Z,97557.45
2023-07-15T20:20:33.642Z,97549.29
2023-07-15T20:24:00.812Z,97546.98
2023-07-15T20:27:49.144Z,97545.82
2023-07-15T20:31:38.777Z,97549.87
2023-07-15T20:35:25.833Z,97550.61
2023-07-15T20:39:13.012Z,97551.94
2023-07-15T20:43:00.317Z,97553.96
2023-07-15T20:46:32.778Z,97552.86
2023-07-15T20:50:00.473Z,97556.29
2023-07-15T20:53:27.843Z,97554.78
2023-07-15T20:57:13.980Z,97553.30
2023-07-15T21:04:45.368Z,97551.51
2023-07-15T21:08:32.364Z,97545.14
2023-07-15T21:12:19.282Z,97542.48
2023-07-15T21:15:46.886Z,97538.19
2023-07-15T21:19:21.379Z,97539.98
2023-07-15T21:22:48.403Z,97544.44
2023-07-15T21:26:15.879Z,97547.61
2023-07-15T21:29:43.149Z,97549.92
2023-07-15T21:33:17.979Z,97550.66
2023-07-15T21:36:30.565Z,97552.56
2023-07-15T21:39:51.247Z,97552.46
2023-07-15T21:43:18.260Z,97551.47
2023-07-15T21:46:41.609Z,97552.10
2023-07-15T21:50:28.421Z,97555.22
2023-07-15T21:53:39.485Z,97555.65
2023-07-15T21:57:06.507Z,97558.42
2023-07-15T22:00:21.286Z,97559.80
2023-07-15T22:03:28.169Z,97562.34
2023-07-15T22:06:55.497Z,97568.74
2023-07-15T22:10:23.788Z,97570.31
2023-07-15T22:13:36.807Z,97574.16
2023-07-15T22:16:45.600Z,97573.79
2023-07-15T22:20:13.869Z,97575.97
2023-07-15T22:23:31.883Z,97575.12
2023-07-15T22:26:59.511Z,97575.54
2023-07-15T22:30:26.358Z,97574.83
2023-07-15T22:33:54.073Z,97573.36
2023-07-15T22:37:40.925Z,97563.18
2023-07-15T22:40:58.942Z,97562.27
2023-07-15T22:44:26.227Z,97561.52
2023-07-15T22:48:12.594Z,97557.45
2023-07-15T22:51:26.896Z,97555.09
2023-07-15T22:54:54.674Z,97554.96
2023-07-15T22:58:02.838Z,97553.73
2023-07-15T23:01:30.381Z,97549.11
2023-07-15T23:04:58.922Z,97551.86
2023-07-15T23:08:27.790Z,97552.36
2023-07-15T23:11:55.003Z,97545.49
2023-07-15T23:15:25.008Z,97539.83
2023-07-15T23:19:01.670Z,97536.25
2023-07-15T23:22:15.654Z,97534.04
2023-07-15T23:25:43.901Z,97538.47
2023-07-15T23:29:30.725Z,97536.48
2023-07-15T23:32:38.772Z,97533.16
2023-07-15T23:36:06.042Z,97532.84
2023-07-15T23:39:52.894Z,97526.77
2023-07-15T23:43:06.472Z,97522.11
2023-07-15T23:46:22.621Z,97516.96
2023-07-15T23:49:37.110Z,97511.08
2023-07-15T23:52:49.045Z,97505.23
2023-07-15T23:56:16.650Z,97508.61
2023-07-15T23:59:46.828Z,97508.21
